Time,TemperatureF,DewpointF,PressureIn,WindDirection,WindDirectionDegrees,WindSpeedMPH,WindSpeedGustMPH,Humidity,HourlyPrecipIn,Conditions,Clouds,dailyrainin,SolarRadiationWatts/m^2,SoftwareType,DateUTC
2013-04-20 00:02:00,38.0,21.0,-100.00,West,259,7.0,17.0,49,0.00,,,0.00,1.000000,,2013-04-20 06:02:00,
2013-04-20 00:12:00,38.0,21.0,-100.00,West,259,7.0,17.0,49,0.00,,,0.00,1.000000,,2013-04-20 06:12:00,
2013-04-20 00:21:00,38.0,21.0,-100.00,West,259,7.0,17.0,49,0.00,,,0.00,1.000000,,2013-04-20 06:21:00,
2013-04-20 00:52:00,37.0,22.0,-100.00,West,261,7.0,14.0,54,0.00,,,0.00,1.000000,,2013-04-20 06:52:00,
2013-04-20 01:01:00,37.0,22.0,-100.00,West,261,7.0,14.0,54,0.00,,,0.00,1.000000,,2013-04-20 07:01:00,
2013-04-20 01:11:00,37.0,22.0,-100.00,West,261,7.0,14.0,54,0.00,,,0.00,1.000000,,2013-04-20 07:11:00,
2013-04-20 01:21:00,37.0,22.0,-100.00,West,261,7.0,14.0,54,0.00,,,0.00,1.000000,,2013-04-20 07:21:00,
2013-04-20 01:52:00,37.0,23.0,-100.00,West,274,4.0,16.0,56,0.00,,,0.00,1.000000,,2013-04-20 07:52:00,
2013-04-20 02:02:00,37.0,23.0,-100.00,West,274,4.0,16.0,56,0.00,,,0.00,1.000000,,2013-04-20 08:02:00,
2013-04-20 02:11:00,37.0,23.0,-100.00,West,274,4.0,16.0,56,0.00,,,0.00,1.000000,,2013-04-20 08:11:00,
2013-04-20 02:21:00,37.0,23.0,-100.00,West,274,4.0,16.0,56,0.00,,,0.00,1.000000,,2013-04-20 08:21:00,
2013-04-20 02:52:00,37.0,22.0,-100.00,West,268,8.0,14.0,54,0.00,,,0.00,1.000000,,2013-04-20 08:52:00,
2013-04-20 03:01:00,37.0,22.0,-100.00,West,268,8.0,14.0,54,0.00,,,0.00,1.000000,,2013-04-20 09:01:00,
2013-04-20 03:12:00,37.0,22.0,-100.00,West,268,8.0,14.0,54,0.00,,,0.00,1.000000,,2013-04-20 09:12:00,
2013-04-20 03:21:00,37.0,22.0,-100.00,West,268,8.0,14.0,54,0.00,,,0.00,1.000000,,2013-04-20 09:21:00,
2013-04-20 03:53:00,35.0,22.0,-100.00,WNW,285,4.0,11.0,59,0.00,,,0.00,1.000000,,2013-04-20 09:53:00,
2013-04-20 04:03:00,35.0,22.0,-100.00,WNW,285,4.0,11.0,59,0.00,,,0.00,1.000000,,2013-04-20 10:03:00,
2013-04-20 04:13:00,35.0,22.0,-100.00,WNW,285,4.0,11.0,59,0.00,,,0.00,1.000000,,2013-04-20 10:13:00,
2013-04-20 04:23:00,35.0,22.0,-100.00,WNW,285,4.0,11.0,59,0.00,,,0.00,1.000000,,2013-04-20 10:23:00,
2013-04-20 04:53:00,37.0,20.0,-100.00,West,266,5.0,11.0,50,0.00,,,0.00,1.000000,,2013-04-20 10:53:00,
2013-04-20 05:02:00,37.0,20.0,-100.00,West,266,5.0,11.0,50,0.00,,,0.00,1.000000,,2013-04-20 11:02:00,
2013-04-20 05:12:00,37.0,20.0,-100.00,West,266,5.0,11.0,50,0.00,,,0.00,1.000000,,2013-04-20 11:12:00,
2013-04-20 05:23:00,37.0,20.0,-100.00,West,266,5.0,11.0,50,0.00,,,0.00,1.000000,,2013-04-20 11:23:00,
2013-04-20 05:53:00,35.0,21.0,-100.00,West,271,4.0,9.0,57,0.00,,,0.00,1.000000,,2013-04-20 11:53:00,
2013-04-20 06:02:00,35.0,21.0,-100.00,West,271,4.0,9.0,57,0.00,,,0.00,1.000000,,2013-04-20 12:02:00,
2013-04-20 06:11:00,35.0,21.0,-100.00,West,271,4.0,9.0,57,0.00,,,0.00,1.000000,,2013-04-20 12:11:00,
2013-04-20 06:22:00,35.0,21.0,-100.00,West,271,4.0,9.0,57,0.00,,,0.00,1.000000,,2013-04-20 12:22:00,
2013-04-20 06:52:00,36.0,22.0,-100.00,West,273,3.0,11.0,57,0.00,,,0.00,1.000000,,2013-04-20 12:52:00,
2013-04-20 07:02:00,36.0,22.0,-100.00,West,273,3.0,11.0,57,0.00,,,0.00,1.000000,,2013-04-20 13:02:00,
2013-04-20 07:11:00,36.0,22.0,-100.00,West,273,3.0,11.0,57,0.00,,,0.00,1.000000,,2013-04-20 13:11:00,
2013-04-20 07:21:00,36.0,22.0,-100.00,West,273,3.0,11.0,57,0.00,,,0.00,1.000000,,2013-04-20 13:21:00,
2013-04-20 07:52:00,37.0,24.0,-100.00,West,277,3.0,13.0,60,0.00,,,0.00,32.000000,,2013-04-20 13:52:00,
2013-04-20 08:02:00,37.0,24.0,-100.00,West,277,3.0,13.0,60,0.00,,,0.00,32.000000,,2013-04-20 14:02:00,
2013-04-20 08:11:00,37.0,24.0,-100.00,West,277,3.0,13.0,60,0.00,,,0.00,32.000000,,2013-04-20 14:11:00,
2013-04-20 08:21:00,37.0,24.0,-100.00,West,277,3.0,13.0,60,0.00,,,0.00,32.000000,,2013-04-20 14:21:00,
2013-04-20 08:52:00,43.0,24.0,-100.00,West,274,3.0,6.0,46,0.00,,,0.00,139.000000,,2013-04-20 14:52:00,
2013-04-20 09:01:00,43.0,24.0,-100.00,West,274,3.0,6.0,46,0.00,,,0.00,139.000000,,2013-04-20 15:01:00,
2013-04-20 09:11:00,43.0,24.0,-100.00,West,274,3.0,6.0,46,0.00,,,0.00,139.000000,,2013-04-20 15:11:00,
2013-04-20 09:21:00,43.0,24.0,-100.00,West,274,3.0,6.0,46,0.00,,,0.00,139.000000,,2013-04-20 15:21:00,
2013-04-20 09:53:00,48.0,23.0,-100.00,West,270,2.0,5.0,37,0.00,,,0.00,280.000000,,2013-04-20 15:53:00,
2013-04-20 10:03:00,48.0,23.0,-100.00,West,270,2.0,5.0,37,0.00,,,0.00,280.000000,,2013-04-20 16:03:00,
2013-04-20 10:12:00,48.0,23.0,-100.00,West,270,2.0,5.0,37,0.00,,,0.00,280.000000,,2013-04-20 16:12:00,
2013-04-20 10:23:00,48.0,23.0,-100.00,West,270,2.0,5.0,37,0.00,,,0.00,280.000000,,2013-04-20 16:23:00,
2013-04-20 10:53:00,44.0,28.0,-100.00,SE,140,3.0,8.0,54,0.00,,,0.00,374.000000,,2013-04-20 16:53:00,
2013-04-20 11:02:00,44.0,28.0,-100.00,SE,140,3.0,8.0,54,0.00,,,0.00,374.000000,,2013-04-20 17:02:00,
2013-04-20 11:12:00,44.0,28.0,-100.00,SE,140,3.0,8.0,54,0.00,,,0.00,374.000000,,2013-04-20 17:12:00,
2013-04-20 11:23:00,44.0,28.0,-100.00,SE,140,3.0,8.0,54,0.00,,,0.00,374.000000,,2013-04-20 17:23:00,
2013-04-20 11:52:00,51.0,28.0,-100.00,ESE,122,3.0,7.0,40,0.00,,,0.00,526.000000,,2013-04-20 17:52:00,
2013-04-20 12:02:00,51.0,28.0,-100.00,ESE,122,3.0,7.0,40,0.00,,,0.00,526.000000,,2013-04-20 18:02:00,
2013-04-20 12:12:00,51.0,28.0,-100.00,ESE,122,3.0,7.0,40,0.00,,,0.00,526.000000,,2013-04-20 18:12:00,
2013-04-20 12:22:00,51.0,28.0,-100.00,ESE,122,3.0,7.0,40,0.00,,,0.00,526.000000,,2013-04-20 18:22:00,
2013-04-20 12:52:00,51.0,28.0,-100.00,ESE,112,4.0,10.0,41,0.00,,,0.00,727.000000,,2013-04-20 18:52:00,
2013-04-20 13:02:00,51.0,28.0,-100.00,ESE,112,4.0,10.0,41,0.00,,,0.00,727.000000,,2013-04-20 19:02:00,
2013-04-20 13:11:00,51.0,28.0,-100.00,ESE,112,4.0,10.0,41,0.00,,,0.00,727.000000,,2013-04-20 19:11:00,
2013-04-20 13:21:00,51.0,28.0,-100.00,ESE,112,4.0,10.0,41,0.00,,,0.00,727.000000,,2013-04-20 19:21:00,
2013-04-20 13:52:00,51.0,29.0,-100.00,ESE,106,4.0,8.0,42,0.00,,,0.00,686.000000,,2013-04-20 19:52:00,
2013-04-20 14:02:00,51.0,29.0,-100.00,ESE,106,4.0,8.0,42,0.00,,,0.00,686.000000,,2013-04-20 20:02:00,
2013-04-20 14:12:00,51.0,29.0,-100.00,ESE,106,4.0,8.0,42,0.00,,,0.00,686.000000,,2013-04-20 20:12:00,
2013-04-20 14:21:00,51.0,29.0,-100.00,ESE,106,4.0,8.0,42,0.00,,,0.00,686.000000,,2013-04-20 20:21:00,
2013-04-20 14:52:00,52.0,28.0,-100.00,ENE,76,3.0,10.0,39,0.00,,,0.00,599.000000,,2013-04-20 20:52:00,
2013-04-20 15:01:00,52.0,28.0,-100.00,ENE,76,3.0,10.0,39,0.00,,,0.00,599.000000,,2013-04-20 21:01:00,
2013-04-20 15:12:00,52.0,28.0,-100.00,ENE,76,3.0,10.0,39,0.00,,,0.00,599.000000,,2013-04-20 21:12:00,
2013-04-20 15:22:00,52.0,28.0,-100.00,ENE,76,3.0,10.0,39,0.00,,,0.00,599.000000,,2013-04-20 21:22:00,
2013-04-20 15:53:00,50.0,28.0,-100.00,ESE,109,3.0,7.0,43,0.00,,,0.00,414.000000,,2013-04-20 21:53:00,
2013-04-20 16:02:00,50.0,28.0,-100.00,ESE,109,3.0,7.0,43,0.00,,,0.00,414.000000,,2013-04-20 22:02:00,
2013-04-20 16:12:00,50.0,28.0,-100.00,ESE,109,3.0,7.0,43,0.00,,,0.00,414.000000,,2013-04-20 22:12:00,
2013-04-20 16:22:00,50.0,28.0,-100.00,ESE,109,3.0,7.0,43,0.00,,,0.00,414.000000,,2013-04-20 22:22:00,
2013-04-20 16:53:00,49.0,29.0,-100.00,ENE,75,4.0,9.0,46,0.00,,,0.00,424.000000,,2013-04-20 22:53:00,
2013-04-20 17:02:00,49.0,29.0,-100.00,ENE,75,4.0,9.0,46,0.00,,,0.00,424.000000,,2013-04-20 23:02:00,
2013-04-20 17:11:00,49.0,29.0,-100.00,ENE,75,4.0,9.0,46,0.00,,,0.00,424.000000,,2013-04-20 23:11:00,
2013-04-20 17:22:00,49.0,29.0,-100.00,ENE,75,4.0,9.0,46,0.00,,,0.00,424.000000,,2013-04-20 23:22:00,
2013-04-20 17:53:00,48.0,29.0,-100.00,East,87,3.0,8.0,47,0.00,,,0.00,382.000000,,2013-04-20 23:53:00,
2013-04-20 18:01:00,48.0,29.0,-100.00,East,87,3.0,8.0,47,0.00,,,0.00,382.000000,,2013-04-21 00:01:00,
2013-04-20 18:11:00,48.0,29.0,-100.00,East,87,3.0,8.0,47,0.00,,,0.00,382.000000,,2013-04-21 00:11:00,
2013-04-20 18:22:00,48.0,29.0,-100.00,East,87,3.0,8.0,47,0.00,,,0.00,382.000000,,2013-04-21 00:22:00,
2013-04-20 18:52:00,47.0,30.0,-100.00,East,89,1.0,5.0,52,0.00,,,0.00,163.000000,,2013-04-21 00:52:00,
2013-04-20 19:01:00,47.0,30.0,-100.00,East,89,1.0,5.0,52,0.00,,,0.00,163.000000,,2013-04-21 01:01:00,
2013-04-20 19:12:00,47.0,30.0,-100.00,East,89,1.0,5.0,52,0.00,,,0.00,163.000000,,2013-04-21 01:12:00,
2013-04-20 19:21:00,47.0,30.0,-100.00,East,89,1.0,5.0,52,0.00,,,0.00,163.000000,,2013-04-21 01:21:00,
2013-04-20 19:52:00,43.0,30.0,-100.00,WNW,291,1.0,3.0,60,0.00,,,0.00,74.000000,,2013-04-21 01:52:00,
2013-04-20 20:02:00,43.0,30.0,-100.00,WNW,291,1.0,3.0,60,0.00,,,0.00,74.000000,,2013-04-21 02:02:00,
2013-04-20 20:11:00,43.0,30.0,-100.00,WNW,291,1.0,3.0,60,0.00,,,0.00,74.000000,,2013-04-21 02:11:00,
2013-04-20 20:21:00,43.0,30.0,-100.00,WNW,291,1.0,3.0,60,0.00,,,0.00,74.000000,,2013-04-21 02:21:00,
2013-04-20 20:52:00,39.0,30.0,-100.00,West,270,2.0,3.0,69,0.00,,,0.00,20.000000,,2013-04-21 02:52:00,
2013-04-20 21:01:00,39.0,30.0,-100.00,West,270,2.0,3.0,69,0.00,,,0.00,20.000000,,2013-04-21 03:01:00,
2013-04-20 21:11:00,39.0,30.0,-100.00,West,270,2.0,3.0,69,0.00,,,0.00,20.000000,,2013-04-21 03:11:00,
2013-04-20 21:21:00,39.0,30.0,-100.00,West,270,2.0,3.0,69,0.00,,,0.00,20.000000,,2013-04-21 03:21:00,
2013-04-20 21:52:00,38.0,30.0,-100.00,WNW,293,4.0,6.0,72,0.00,,,0.00,1.000000,,2013-04-21 03:52:00,
2013-04-20 22:02:00,38.0,30.0,-100.00,WNW,293,4.0,6.0,72,0.00,,,0.00,1.000000,,2013-04-21 04:02:00,
2013-04-20 22:12:00,38.0,30.0,-100.00,WNW,293,4.0,6.0,72,0.00,,,0.00,1.000000,,2013-04-21 04:12:00,
2013-04-20 22:23:00,38.0,30.0,-100.00,WNW,293,4.0,6.0,72,0.00,,,0.00,1.000000,,2013-04-21 04:23:00,
2013-04-20 22:53:00,36.0,29.0,-100.00,WNW,284,3.0,5.0,76,0.00,,,0.00,1.000000,,2013-04-21 04:53:00,
2013-04-20 23:02:00,36.0,29.0,-100.00,WNW,284,3.0,5.0,76,0.00,,,0.00,1.000000,,2013-04-21 05:02:00,
2013-04-20 23:12:00,36.0,29.0,-100.00,WNW,284,3.0,5.0,76,0.00,,,0.00,1.000000,,2013-04-21 05:12:00,
2013-04-20 23:22:00,36.0,29.0,-100.00,WNW,284,3.0,5.0,76,0.00,,,0.00,1.000000,,2013-04-21 05:22:00,
2013-04-20 23:52:00,35.0,26.0,-100.00,WNW,289,3.0,6.0,68,0.00,,,0.00,1.000000,,2013-04-21 05:52:00,